createdAt,value
2022-11-16T00:04:50.250Z,7.57
2022-11-16T00:09:54.262Z,4.05
2022-11-16T00:14:59.721Z,11.60
2022-11-16T00:20:03.751Z,7.32
2022-11-16T00:25:08.817Z,17.17
2022-11-16T00:30:15.004Z,15.80
2022-11-16T00:35:19.827Z,32.33
2022-11-16T00:40:23.961Z,47.13
2022-11-16T00:45:29.355Z,34.20
2022-11-16T00:50:33.362Z,11.35
2022-11-16T00:55:38.113Z,12.25
2022-11-16T01:00:44.574Z,12.75
2022-11-16T01:05:48.606Z,18.02
2022-11-16T01:10:52.622Z,19.50
2022-11-16T01:15:58.198Z,16.23
2022-11-16T01:21:02.308Z,11.27
2022-11-16T01:26:06.845Z,8.75
2022-11-16T01:31:14.312Z,7.30
2022-11-16T01:36:19.690Z,4.13
2022-11-16T01:41:25.744Z,5.63
2022-11-16T01:46:39.276Z,7.57
2022-11-16T01:51:50.630Z,11.45
2022-11-16T01:56:58.099Z,8.02
2022-11-16T02:02:19.337Z,9.20
2022-11-16T02:07:54.663Z,7.00
2022-11-16T02:13:23.642Z,8.38
2022-11-16T02:18:36.935Z,10.35
2022-11-16T02:24:19.291Z,7.53
2022-11-16T02:29:30.795Z,5.65
2022-11-16T02:34:39.238Z,9.95
2022-11-16T02:39:48.098Z,8.15
2022-11-16T02:44:56.001Z,9.40
2022-11-16T02:50:06.376Z,4.68
2022-11-16T02:55:11.008Z,6.63
2022-11-16T03:00:22.787Z,4.55
2022-11-16T03:05:35.583Z,27.67
2022-11-16T03:11:05.199Z,10.07
2022-11-16T03:16:17.373Z,10.68
2022-11-16T03:21:30.117Z,6.88
2022-11-16T03:26:39.722Z,20.20
2022-11-16T03:31:49.660Z,8.65
2022-11-16T03:36:58.033Z,11.30
2022-11-16T03:42:05.101Z,8.82
2022-11-16T03:47:10.599Z,10.23
2022-11-16T03:52:16.593Z,3.50
2022-11-16T03:57:21.122Z,7.22
2022-11-16T04:02:32.668Z,9.45
2022-11-16T04:07:54.395Z,4.88
2022-11-16T04:13:16.828Z,8.43
2022-11-16T04:18:40.038Z,7.00
2022-11-16T04:24:02.306Z,4.93
2022-11-16T04:29:06.430Z,12.55
2022-11-16T04:34:29.215Z,10.63
2022-11-16T04:39:35.988Z,7.22
2022-11-16T04:44:59.490Z,3.80
2022-11-16T04:50:10.778Z,5.82
2022-11-16T04:55:17.099Z,5.38
2022-11-16T05:00:23.083Z,6.88
2022-11-16T05:05:29.449Z,5.75
2022-11-16T05:10:34.653Z,34.07
2022-11-16T05:15:38.795Z,8.63
2022-11-16T05:21:02.436Z,9.13
2022-11-16T05:26:12.195Z,8.48
2022-11-16T05:31:16.394Z,23.23
2022-11-16T05:36:23.378Z,9.50
2022-11-16T05:41:27.692Z,15.30
2022-11-16T05:46:31.893Z,29.20
2022-11-16T05:51:40.662Z,26.35
2022-11-16T05:56:45.336Z,11.77
2022-11-16T06:01:50.921Z,12.52
2022-11-16T06:06:56.483Z,10.63
2022-11-16T06:12:07.111Z,8.02
2022-11-16T06:17:14.615Z,7.75
2022-11-16T06:22:21.333Z,15.20
2022-11-16T06:27:25.828Z,18.27
2022-11-16T06:32:30.143Z,7.63
2022-11-16T06:37:36.071Z,21.08
2022-11-16T06:42:40.411Z,9.73
2022-11-16T06:47:46.457Z,8.35
2022-11-16T06:52:52.147Z,12.68
2022-11-16T06:57:57.049Z,21.02
2022-11-16T07:03:04.023Z,27.77
2022-11-16T07:08:10.150Z,16.10
2022-11-16T07:13:14.217Z,18.35
2022-11-16T07:18:18.344Z,17.58
2022-11-16T07:23:23.894Z,18.10
2022-11-16T07:28:29.428Z,28.73
2022-11-16T07:33:34.603Z,33.47
2022-11-16T07:38:59.031Z,68.97
2022-11-16T07:44:03.260Z,28.63
2022-11-16T07:49:11.507Z,54.67
2022-11-16T07:54:26.714Z,44.65
2022-11-16T07:59:30.771Z,41.58
2022-11-16T08:04:36.073Z,13.20
2022-11-16T08:09:42.209Z,22.73
2022-11-16T08:14:50.148Z,14.95
2022-11-16T08:19:54.635Z,25.17
2022-11-16T08:25:00.696Z,18.63
2022-11-16T08:30:09.772Z,17.45
2022-11-16T08:35:15.288Z,27.15
2022-11-16T08:40:22.388Z,32.53
2022-11-16T08:45:27.495Z,22.10
2022-11-16T08:55:57.635Z,23.27
2022-11-16T09:01:09.959Z,29.52
2022-11-16T09:06:14.584Z,22.63
2022-11-16T09:11:22.080Z,36.72
2022-11-16T09:21:32.104Z,24.17
2022-11-16T09:26:37.456Z,28.80
2022-11-16T09:31:41.679Z,24.55
2022-11-16T09:36:45.640Z,33.58
2022-11-16T09:42:02.508Z,25.85
2022-11-16T09:47:15.290Z,34.78
2022-11-16T09:52:26.996Z,27.50
2022-11-16T09:57:38.453Z,34.53
2022-11-16T10:02:47.019Z,38.72
2022-11-16T10:07:54.722Z,34.10
2022-11-16T10:13:09.784Z,31.33
2022-11-16T10:18:34.401Z,21.08
2022-11-16T10:23:51.813Z,38.78
2022-11-16T10:34:21.287Z,31.13
2022-11-16T10:39:27.685Z,28.85
2022-11-16T10:44:39.283Z,38.72
2022-11-16T10:49:53.074Z,18.05
2022-11-16T10:54:57.163Z,29.80
2022-11-16T11:00:02.856Z,30.05
2022-11-16T11:05:15.315Z,19.98
2022-11-16T11:10:28.531Z,18.35
2022-11-16T11:15:34.696Z,31.42
2022-11-16T11:20:44.887Z,37.47
2022-11-16T11:25:56.651Z,23.60
2022-11-16T11:31:05.413Z,25.88
2022-11-16T11:36:19.182Z,30.25
2022-11-16T11:41:23.262Z,33.08
2022-11-16T11:47:06.313Z,29.85
2022-11-16T11:52:00.399Z,35.22
2022-11-16T11:57:05.150Z,34.17
2022-11-16T12:02:28.454Z,59.10
2022-11-16T12:07:57.388Z,27.42
2022-11-16T12:13:18.729Z,32.20
2022-11-16T12:18:37.351Z,34.20
2022-11-16T12:24:11.771Z,27.55
2022-11-16T12:29:25.909Z,32.00
2022-11-16T12:34:45.372Z,19.05
2022-11-16T12:40:09.812Z,25.15
2022-11-16T12:45:33.190Z,22.88
2022-11-16T12:50:53.753Z,28.98
2022-11-16T12:56:06.238Z,27.45
2022-11-16T13:01:18.595Z,29.70
2022-11-16T13:06:30.904Z,29.50
2022-11-16T13:11:38.791Z,37.65
2022-11-16T13:16:43.062Z,20.92
2022-11-16T13:21:56.878Z,26.83
2022-11-16T13:27:14.867Z,30.73
2022-11-16T13:32:26.188Z,23.90
2022-11-16T13:37:45.418Z,31.95
2022-11-16T13:43:03.416Z,31.40
2022-11-16T13:48:18.565Z,26.75
2022-11-16T13:58:55.742Z,37.85
2022-11-16T14:04:55.063Z,36.17
2022-11-16T14:10:00.503Z,45.97
2022-11-16T14:15:14.509Z,32.25
2022-11-16T14:20:41.118Z,36.88
2022-11-16T14:25:56.377Z,34.07
2022-11-16T14:31:11.102Z,36.33
2022-11-16T14:36:16.334Z,27.60
2022-11-16T14:41:24.303Z,24.90
2022-11-16T14:46:34.561Z,33.42
2022-11-16T14:51:43.908Z,27.77
2022-11-16T14:57:00.757Z,34.63
2022-11-16T15:02:18.058Z,42.42
2022-11-16T15:07:24.838Z,27.67
2022-11-16T15:12:43.189Z,26.70
2022-11-16T15:17:53.357Z,25.52
2022-11-16T15:22:59.681Z,44.85
2022-11-16T15:28:07.118Z,34.47
2022-11-16T15:33:15.835Z,25.05
2022-11-16T15:38:22.782Z,42.00
2022-11-16T15:43:33.069Z,27.30
2022-11-16T15:48:40.078Z,25.73
2022-11-16T15:53:47.079Z,19.90
2022-11-16T15:58:53.374Z,16.60
2022-11-16T16:04:00.856Z,14.07
2022-11-16T16:14:11.800Z,7.78
2022-11-16T16:19:32.837Z,10.05
2022-11-16T16:24:41.154Z,16.33
2022-11-16T16:29:47.296Z,35.38
2022-11-16T16:34:52.289Z,21.27
2022-11-16T16:39:56.760Z,13.13
2022-11-16T16:45:03.009Z,23.13
2022-11-16T16:50:09.317Z,29.20
2022-11-16T16:55:13.272Z,10.18
2022-11-16T17:00:19.593Z,10.98
2022-11-16T17:05:23.590Z,10.95
2022-11-16T17:10:28.085Z,11.95
2022-11-16T17:15:33.477Z,31.98
2022-11-16T17:20:37.601Z,78.20
2022-11-16T17:25:42.587Z,91.90
2022-11-16T17:30:49.061Z,40.97
2022-11-16T17:35:56.867Z,25.42
2022-11-16T17:41:06.113Z,37.92
2022-11-16T17:46:12.996Z,29.90
2022-11-16T17:51:18.506Z,39.80
2022-11-16T17:56:26.004Z,32.50
2022-11-16T18:06:35.730Z,25.23
2022-11-16T18:11:40.092Z,13.23
2022-11-16T18:16:47.892Z,18.55
2022-11-16T18:21:51.948Z,19.27
2022-11-16T18:26:56.264Z,18.42
2022-11-16T18:32:01.636Z,7.53
2022-11-16T18:37:05.652Z,11.20
2022-11-16T18:42:13.077Z,29.13
2022-11-16T18:52:22.093Z,39.60
2022-11-16T18:57:26.628Z,22.13
2022-11-16T19:02:32.043Z,14.40
2022-11-16T19:07:36.058Z,24.40
2022-11-16T19:12:40.032Z,15.45
2022-11-16T19:18:06.653Z,15.35
2022-11-16T19:23:09.437Z,18.70
2022-11-16T19:28:13.460Z,30.17
2022-11-16T19:33:18.790Z,29.95
2022-11-16T19:38:22.805Z,25.13
2022-11-16T19:43:26.788Z,26.75
2022-11-16T19:48:33.218Z,9.77
2022-11-16T19:53:37.592Z,8.93
2022-11-16T19:58:42.120Z,21.95
2022-11-16T20:03:48.821Z,16.40
2022-11-16T20:08:55.891Z,19.10
2022-11-16T20:14:00.229Z,11.40
2022-11-16T20:19:06.897Z,15.68
2022-11-16T20:24:13.304Z,10.43
2022-11-16T20:29:19.472Z,7.47
2022-11-16T20:34:24.810Z,6.50
2022-11-16T20:39:28.830Z,7.43
2022-11-16T20:44:32.754Z,10.88
2022-11-16T20:49:39.151Z,32.05
2022-11-16T20:54:43.104Z,20.75
2022-11-16T20:59:47.085Z,26.17
2022-11-16T21:04:57.460Z,27.55
2022-11-16T21:10:22.324Z,23.63
2022-11-16T21:15:26.264Z,20.60
2022-11-16T21:20:31.584Z,18.35
2022-11-16T21:25:35.568Z,17.67
2022-11-16T21:30:39.464Z,17.58
2022-11-16T21:35:44.848Z,12.10
2022-11-16T21:40:49.367Z,7.45
2022-11-16T21:45:53.277Z,13.88
2022-11-16T21:51:02.568Z,13.13
2022-11-16T21:56:08.383Z,9.13
2022-11-16T22:01:13.285Z,8.98
2022-11-16T22:06:36.088Z,9.48
2022-11-16T22:11:40.012Z,17.80
2022-11-16T22:16:43.941Z,11.38
2022-11-16T22:21:49.335Z,9.27
2022-11-16T22:26:53.265Z,4.07
2022-11-16T22:31:57.228Z,7.63
2022-11-16T22:37:02.619Z,12.73
2022-11-16T22:42:06.813Z,3.53
2022-11-16T22:47:10.937Z,9.95
2022-11-16T22:52:16.216Z,5.70
2022-11-16T22:57:20.149Z,10.25
2022-11-16T23:02:24.193Z,8.93
2022-11-16T23:07:29.601Z,6.18
2022-11-16T23:12:50.989Z,3.90
2022-11-16T23:17:54.966Z,4.57
2022-11-16T23:23:17.447Z,6.30
2022-11-16T23:28:21.785Z,4.97
2022-11-16T23:33:43.860Z,7.50
2022-11-16T23:38:49.269Z,6.35
2022-11-16T23:43:59.362Z,6.03
2022-11-16T23:49:04.568Z,7.72
2022-11-16T23:54:10.031Z,6.63
2022-11-16T23:59:13.990Z,5.72
